sensor_id;sensor_type;location;lat;lon;timestamp;pressure;altitude;pressure_sealevel;temperature;humidity
8280;BME280;8335;42.646;23.380;2023-01-25T00:01:29;141928.47;;;1.24;100.00
8280;BME280;8335;42.646;23.380;2023-01-25T00:03:56;141944.50;;;1.31;100.00
8280;BME280;8335;42.646;23.380;2023-01-25T00:06:23;141906.28;;;1.15;100.00
8280;BME280;8335;42.646;23.380;2023-01-25T00:08:50;141848.31;;;0.91;100.00
8280;BME280;8335;42.646;23.380;2023-01-25T00:11:18;141864.34;;;0.98;100.00
8280;BME280;8335;42.646;23.380;2023-01-25T00:13:45;141874.22;;;1.02;100.00
8280;BME280;8335;42.646;23.380;2023-01-25T00:16:12;141874.22;;;1.02;100.00
8280;BME280;8335;42.646;23.380;2023-01-25T00:18:39;141876.69;;;1.03;100.00
8280;BME280;8335;42.646;23.380;2023-01-25T00:21:16;141865.56;;;0.98;100.00
8280;BME280;8335;42.646;23.380;2023-01-25T00:23:43;141837.25;;;0.87;100.00
8280;BME280;8335;42.646;23.380;2023-01-25T00:26:10;141807.66;;;0.74;100.00
8280;BME280;8335;42.646;23.380;2023-01-25T00:28:38;141813.78;;;0.77;100.00
8280;BME280;8335;42.646;23.380;2023-01-25T00:31:06;141823.69;;;0.81;100.00
8280;BME280;8335;42.646;23.380;2023-01-25T00:33:48;141801.50;;;0.72;100.00
8280;BME280;8335;42.646;23.380;2023-01-25T00:36:27;141823.69;;;0.81;100.00
8280;BME280;8335;42.646;23.380;2023-01-25T00:38:56;141823.69;;;0.81;100.00
8280;BME280;8335;42.646;23.380;2023-01-25T00:41:23;141824.91;;;0.81;100.00
8280;BME280;8335;42.646;23.380;2023-01-25T00:43:52;141799.00;;;0.71;100.00
8280;BME280;8335;42.646;23.380;2023-01-25T00:46:18;141820.00;;;0.79;100.00
8280;BME280;8335;42.646;23.380;2023-01-25T00:48:45;141826.13;;;0.82;100.00
8280;BME280;8335;42.646;23.380;2023-01-25T00:51:12;141834.75;;;0.86;100.00
8280;BME280;8335;42.646;23.380;2023-01-25T00:53:40;141824.91;;;0.81;100.00
8280;BME280;8335;42.646;23.380;2023-01-25T00:56:07;141834.75;;;0.86;100.00
8280;BME280;8335;42.646;23.380;2023-01-25T00:58:33;141842.16;;;0.89;100.00
8280;BME280;8335;42.646;23.380;2023-01-25T01:01:02;141866.81;;;0.99;100.00
8280;BME280;8335;42.646;23.380;2023-01-25T01:03:28;141815.03;;;0.77;100.00
8280;BME280;8335;42.646;23.380;2023-01-25T01:05:59;141765.72;;;0.57;100.00
8280;BME280;8335;42.646;23.380;2023-01-25T01:08:27;141824.91;;;0.81;100.00
8280;BME280;8335;42.646;23.380;2023-01-25T01:10:58;141834.75;;;0.86;100.00
8280;BME280;8335;42.646;23.380;2023-01-25T01:13:25;141813.78;;;0.77;100.00
8280;BME280;8335;42.646;23.380;2023-01-25T01:15:51;141808.88;;;0.75;100.00
8280;BME280;8335;42.646;23.380;2023-01-25T01:18:19;141796.53;;;0.70;100.00
8280;BME280;8335;42.646;23.380;2023-01-25T01:20:48;141776.81;;;0.62;100.00
8280;BME280;8335;42.646;23.380;2023-01-25T01:23:14;141769.44;;;0.59;100.00
8280;BME280;8335;42.646;23.380;2023-01-25T01:25:41;141767.00;;;0.58;100.00
8280;BME280;8335;42.646;23.380;2023-01-25T01:28:08;141778.06;;;0.62;100.00
8280;BME280;8335;42.646;23.380;2023-01-25T01:30:35;141779.28;;;0.63;100.00
8280;BME280;8335;42.646;23.380;2023-01-25T01:33:02;141782.97;;;0.64;100.00
8280;BME280;8335;42.646;23.380;2023-01-25T01:35:31;141790.38;;;0.67;100.00
8280;BME280;8335;42.646;23.380;2023-01-25T01:37:58;141818.75;;;0.79;100.00
8280;BME280;8335;42.646;23.380;2023-01-25T01:40:25;141843.41;;;0.89;100.00
8280;BME280;8335;42.646;23.380;2023-01-25T01:42:59;141889.03;;;1.08;100.00
8280;BME280;8335;42.646;23.380;2023-01-25T01:45:51;141895.19;;;1.10;100.00
8280;BME280;8335;42.646;23.380;2023-01-25T01:48:22;141921.06;;;1.21;100.00
8280;BME280;8335;42.646;23.380;2023-01-25T01:50:56;141935.84;;;1.27;100.00
8280;BME280;8335;42.646;23.380;2023-01-25T01:53:25;141935.84;;;1.27;100.00
8280;BME280;8335;42.646;23.380;2023-01-25T01:55:55;141949.44;;;1.33;100.00
8280;BME280;8335;42.646;23.380;2023-01-25T01:58:22;141950.66;;;1.33;100.00
8280;BME280;8335;42.646;23.380;2023-01-25T02:00:49;141933.41;;;1.26;100.00
8280;BME280;8335;42.646;23.380;2023-01-25T02:03:17;141944.50;;;1.31;100.00
8280;BME280;8335;42.646;23.380;2023-01-25T02:05:49;141942.06;;;1.30;100.00
8280;BME280;8335;42.646;23.380;2023-01-25T02:08:19;141942.06;;;1.30;100.00
8280;BME280;8335;42.646;23.380;2023-01-25T02:10:47;141958.09;;;1.36;100.00
8280;BME280;8335;42.646;23.380;2023-01-25T02:13:16;141976.59;;;1.44;100.00
8280;BME280;8335;42.646;23.380;2023-01-25T02:15:45;141986.44;;;1.48;100.00
8280;BME280;8335;42.646;23.380;2023-01-25T02:18:13;141988.88;;;1.49;100.00
8280;BME280;8335;42.646;23.380;2023-01-25T02:20:42;141969.16;;;1.41;100.00
8280;BME280;8335;42.646;23.380;2023-01-25T02:23:15;141935.84;;;1.27;100.00
8280;BME280;8335;42.646;23.380;2023-01-25T02:25:45;141908.75;;;1.16;100.00
8280;BME280;8335;42.646;23.380;2023-01-25T02:28:14;141903.78;;;1.14;100.00
8280;BME280;8335;42.646;23.380;2023-01-25T02:30:44;141879.16;;;1.04;100.00
8280;BME280;8335;42.646;23.380;2023-01-25T02:33:11;141861.88;;;0.97;100.00
8280;BME280;8335;42.646;23.380;2023-01-25T02:35:41;141799.00;;;0.71;100.00
8280;BME280;8335;42.646;23.380;2023-01-25T02:38:11;141871.78;;;1.01;100.00
8280;BME280;8335;42.646;23.380;2023-01-25T02:40:43;141896.41;;;1.11;100.00
8280;BME280;8335;42.646;23.380;2023-01-25T02:43:13;141912.44;;;1.18;100.00
8280;BME280;8335;42.646;23.380;2023-01-25T02:45:40;141858.19;;;0.95;100.00
8280;BME280;8335;42.646;23.380;2023-01-25T02:48:09;141951.88;;;1.34;100.00
8280;BME280;8335;42.646;23.380;2023-01-25T02:50:35;141967.94;;;1.41;100.00
8280;BME280;8335;42.646;23.380;2023-01-25T02:53:02;141974.13;;;1.43;100.00
8280;BME280;8335;42.646;23.380;2023-01-25T02:55:29;141960.53;;;1.37;100.00
8280;BME280;8335;42.646;23.380;2023-01-25T02:57:56;141972.84;;;1.43;100.00
8280;BME280;8335;42.646;23.380;2023-01-25T03:00:24;141974.13;;;1.43;100.00
8280;BME280;8335;42.646;23.380;2023-01-25T03:02:50;141976.59;;;1.44;100.00
8280;BME280;8335;42.646;23.380;2023-01-25T03:05:17;141988.88;;;1.49;100.00
8280;BME280;8335;42.646;23.380;2023-01-25T03:07:44;141983.97;;;1.47;100.00
8280;BME280;8335;42.646;23.380;2023-01-25T03:10:10;141986.44;;;1.48;100.00
8280;BME280;8335;42.646;23.380;2023-01-25T03:12:37;141981.50;;;1.46;100.00
8280;BME280;8335;42.646;23.380;2023-01-25T03:15:05;141980.28;;;1.46;100.00
8280;BME280;8335;42.646;23.380;2023-01-25T03:17:33;141977.81;;;1.45;100.00
8280;BME280;8335;42.646;23.380;2023-01-25T03:20:00;141981.50;;;1.46;100.00
8280;BME280;8335;42.646;23.380;2023-01-25T03:22:27;141986.44;;;1.48;100.00
8280;BME280;8335;42.646;23.380;2023-01-25T03:24:54;141988.88;;;1.49;100.00
8280;BME280;8335;42.646;23.380;2023-01-25T03:27:21;141990.13;;;1.50;100.00
8280;BME280;8335;42.646;23.380;2023-01-25T03:29:48;141991.41;;;1.50;100.00
8280;BME280;8335;42.646;23.380;2023-01-25T03:32:15;141958.09;;;1.36;100.00
8280;BME280;8335;42.646;23.380;2023-01-25T03:34:43;141946.97;;;1.32;100.00
8280;BME280;8335;42.646;23.380;2023-01-25T03:37:09;141959.31;;;1.37;100.00
8280;BME280;8335;42.646;23.380;2023-01-25T03:39:36;141928.47;;;1.24;100.00
8280;BME280;8335;42.646;23.380;2023-01-25T03:42:03;141921.06;;;1.21;100.00
8280;BME280;8335;42.646;23.380;2023-01-25T03:44:30;141913.66;;;1.18;100.00
8280;BME280;8335;42.646;23.380;2023-01-25T03:46:56;141891.50;;;1.09;100.00
8280;BME280;8335;42.646;23.380;2023-01-25T03:49:23;141901.31;;;1.13;100.00
8280;BME280;8335;42.646;23.380;2023-01-25T03:51:51;141891.50;;;1.09;100.00
8280;BME280;8335;42.646;23.380;2023-01-25T03:54:18;141898.88;;;1.12;100.00
8280;BME280;8335;42.646;23.380;2023-01-25T03:56:45;141919.81;;;1.21;100.00
8280;BME280;8335;42.646;23.380;2023-01-25T03:59:12;141923.56;;;1.22;100.00
8280;BME280;8335;42.646;23.380;2023-01-25T04:01:38;141922.31;;;1.22;100.00
8280;BME280;8335;42.646;23.380;2023-01-25T04:04:05;141892.72;;;1.09;100.00
8280;BME280;8335;42.646;23.380;2023-01-25T04:06:32;141908.75;;;1.16;100.00
8280;BME280;8335;42.646;23.380;2023-01-25T04:09:00;141928.47;;;1.24;100.00
8280;BME280;8335;42.646;23.380;2023-01-25T04:11:27;141943.28;;;1.30;100.00
8280;BME280;8335;42.646;23.380;2023-01-25T04:13:53;141960.53;;;1.37;100.00
8280;BME280;8335;42.646;23.380;2023-01-25T04:16:20;141961.78;;;1.38;100.00
8280;BME280;8335;42.646;23.380;2023-01-25T04:18:47;141969.16;;;1.41;100.00
8280;BME280;8335;42.646;23.380;2023-01-25T04:21:14;141953.13;;;1.34;100.00
8280;BME280;8335;42.646;23.380;2023-01-25T04:23:40;141918.59;;;1.20;100.00
8280;BME280;8335;42.646;23.380;2023-01-25T04:26:09;141919.81;;;1.21;100.00
8280;BME280;8335;42.646;23.380;2023-01-25T04:28:36;141916.13;;;1.19;100.00
8280;BME280;8335;42.646;23.380;2023-01-25T04:31:03;141923.56;;;1.22;100.00
8280;BME280;8335;42.646;23.380;2023-01-25T04:33:31;141907.53;;;1.16;100.00
8280;BME280;8335;42.646;23.380;2023-01-25T04:35:58;141892.72;;;1.09;100.00
8280;BME280;8335;42.646;23.380;2023-01-25T04:38:24;141889.03;;;1.08;100.00
8280;BME280;8335;42.646;23.380;2023-01-25T04:40:51;141877.91;;;1.03;100.00
8280;BME280;8335;42.646;23.380;2023-01-25T04:43:20;141856.97;;;0.95;100.00
8280;BME280;8335;42.646;23.380;2023-01-25T04:45:47;141877.91;;;1.03;100.00
8280;BME280;8335;42.646;23.380;2023-01-25T04:48:14;141817.47;;;0.78;100.00
8280;BME280;8335;42.646;23.380;2023-01-25T04:50:42;141868.03;;;0.99;100.00
8280;BME280;8335;42.646;23.380;2023-01-25T04:53:09;141849.53;;;0.92;100.00
8280;BME280;8335;42.646;23.380;2023-01-25T04:55:36;141834.75;;;0.86;100.00
8280;BME280;8335;42.646;23.380;2023-01-25T04:58:03;141849.53;;;0.92;100.00
8280;BME280;8335;42.646;23.380;2023-01-25T05:00:31;141886.53;;;1.07;100.00
8280;BME280;8335;42.646;23.380;2023-01-25T05:02:58;141875.47;;;1.02;100.00
8280;BME280;8335;42.646;23.380;2023-01-25T05:05:25;141871.78;;;1.01;100.00
8280;BME280;8335;42.646;23.380;2023-01-25T05:07:51;141845.84;;;0.90;100.00
8280;BME280;8335;42.646;23.380;2023-01-25T05:10:18;141860.66;;;0.96;100.00
8280;BME280;8335;42.646;23.380;2023-01-25T05:12:45;141884.06;;;1.06;100.00
8280;BME280;8335;42.646;23.380;2023-01-25T05:15:12;141891.50;;;1.09;100.00
8280;BME280;8335;42.646;23.380;2023-01-25T05:17:40;141893.94;;;1.10;100.00
8280;BME280;8335;42.646;23.380;2023-01-25T05:20:08;141871.78;;;1.01;100.00
8280;BME280;8335;42.646;23.380;2023-01-25T05:22:35;141852.00;;;0.93;100.00
8280;BME280;8335;42.646;23.380;2023-01-25T05:25:02;141837.25;;;0.87;100.00
8280;BME280;8335;42.646;23.380;2023-01-25T05:27:30;141817.47;;;0.78;100.00
8280;BME280;8335;42.646;23.380;2023-01-25T05:29:56;141808.88;;;0.75;100.00
8280;BME280;8335;42.646;23.380;2023-01-25T05:32:23;141847.09;;;0.91;100.00
8280;BME280;8335;42.646;23.380;2023-01-25T05:34:51;141874.22;;;1.02;100.00
8280;BME280;8335;42.646;23.380;2023-01-25T05:37:19;141876.69;;;1.03;100.00
8280;BME280;8335;42.646;23.380;2023-01-25T05:39:46;141905.06;;;1.15;100.00
8280;BME280;8335;42.646;23.380;2023-01-25T05:42:14;141912.44;;;1.18;100.00
8280;BME280;8335;42.646;23.380;2023-01-25T05:44:42;141926.03;;;1.23;100.00
8280;BME280;8335;42.646;23.380;2023-01-25T05:47:11;141898.88;;;1.12;100.00
8280;BME280;8335;42.646;23.380;2023-01-25T05:49:38;141897.63;;;1.12;100.00
8280;BME280;8335;42.646;23.380;2023-01-25T05:52:10;141886.53;;;1.07;100.00
8280;BME280;8335;42.646;23.380;2023-01-25T05:54:38;141842.16;;;0.89;100.00
8280;BME280;8335;42.646;23.380;2023-01-25T05:57:04;141845.84;;;0.90;100.00
8280;BME280;8335;42.646;23.380;2023-01-25T05:59:31;141816.25;;;0.78;100.00
8280;BME280;8335;42.646;23.380;2023-01-25T06:01:58;141776.81;;;0.62;100.00
8280;BME280;8335;42.646;23.380;2023-01-25T06:04:24;141797.75;;;0.70;100.00
8280;BME280;8335;42.646;23.380;2023-01-25T06:06:51;141785.47;;;0.65;100.00
8280;BME280;8335;42.646;23.380;2023-01-25T06:09:19;141765.72;;;0.57;100.00
8280;BME280;8335;42.646;23.380;2023-01-25T06:11:46;141785.47;;;0.65;100.00
8280;BME280;8335;42.646;23.380;2023-01-25T06:14:13;141732.47;;;0.43;100.00
8280;BME280;8335;42.646;23.380;2023-01-25T06:16:40;141750.97;;;0.51;100.00
8280;BME280;8335;42.646;23.380;2023-01-25T06:19:07;141757.13;;;0.53;100.00
8280;BME280;8335;42.646;23.380;2023-01-25T06:21:34;141746.00;;;0.49;100.00
8280;BME280;8335;42.646;23.380;2023-01-25T06:24:02;141739.84;;;0.46;100.00
8280;BME280;8335;42.646;23.380;2023-01-25T06:26:30;141725.06;;;0.40;100.00
8280;BME280;8335;42.646;23.380;2023-01-25T06:28:57;141729.97;;;0.42;100.00
8280;BME280;8335;42.646;23.380;2023-01-25T06:31:23;141732.47;;;0.43;100.00
8280;BME280;8335;42.646;23.380;2023-01-25T06:33:51;141748.47;;;0.50;100.00
8280;BME280;8335;42.646;23.380;2023-01-25T06:36:19;141734.94;;;0.44;100.00
8280;BME280;8335;42.646;23.380;2023-01-25T06:38:47;141785.47;;;0.65;100.00
8280;BME280;8335;42.646;23.380;2023-01-25T06:41:15;141812.56;;;0.76;100.00
8280;BME280;8335;42.646;23.380;2023-01-25T06:43:43;141858.19;;;0.95;100.00
8280;BME280;8335;42.646;23.380;2023-01-25T06:46:10;141877.91;;;1.03;100.00
8280;BME280;8335;42.646;23.380;2023-01-25T06:48:37;141887.81;;;1.07;100.00
8280;BME280;8335;42.646;23.380;2023-01-25T06:51:06;141815.03;;;0.77;100.00
8280;BME280;8335;42.646;23.380;2023-01-25T06:53:35;141869.25;;;1.00;100.00
8280;BME280;8335;42.646;23.380;2023-01-25T06:56:04;141907.53;;;1.16;100.00
8280;BME280;8335;42.646;23.380;2023-01-25T06:58:32;141923.56;;;1.22;100.00
8280;BME280;8335;42.646;23.380;2023-01-25T07:01:03;141898.88;;;1.12;100.00
8280;BME280;8335;42.646;23.380;2023-01-25T07:03:30;141934.63;;;1.27;100.00
8280;BME280;8335;42.646;23.380;2023-01-25T07:05:57;141837.25;;;0.87;100.00
8280;BME280;8335;42.646;23.380;2023-01-25T07:08:24;141966.69;;;1.40;100.00
8280;BME280;8335;42.646;23.380;2023-01-25T07:10:55;141958.09;;;1.36;100.00
8280;BME280;8335;42.646;23.380;2023-01-25T07:13:22;141942.06;;;1.30;100.00
8280;BME280;8335;42.646;23.380;2023-01-25T07:15:53;141906.28;;;1.15;100.00
8280;BME280;8335;42.646;23.380;2023-01-25T07:18:21;141930.94;;;1.25;100.00
8280;BME280;8335;42.646;23.380;2023-01-25T07:20:48;141905.06;;;1.15;100.00
8280;BME280;8335;42.646;23.380;2023-01-25T07:23:15;141922.31;;;1.22;100.00
8280;BME280;8335;42.646;23.380;2023-01-25T07:25:43;141924.78;;;1.23;100.00
8280;BME280;8335;42.646;23.380;2023-01-25T07:28:09;141881.59;;;1.05;100.00
8280;BME280;8335;42.646;23.380;2023-01-25T07:30:36;141903.78;;;1.14;100.00
8280;BME280;8335;42.646;23.380;2023-01-25T07:33:03;141934.63;;;1.27;100.00
8280;BME280;8335;42.646;23.380;2023-01-25T07:35:31;141927.25;;;1.24;100.00
8280;BME280;8335;42.646;23.380;2023-01-25T07:37:58;141930.94;;;1.25;100.00
8280;BME280;8335;42.646;23.380;2023-01-25T07:40:25;141907.53;;;1.16;100.00
8280;BME280;8335;42.646;23.380;2023-01-25T07:42:52;141864.34;;;0.98;100.00
8280;BME280;8335;42.646;23.380;2023-01-25T07:45:19;141848.31;;;0.91;100.00
8280;BME280;8335;42.646;23.380;2023-01-25T07:47:46;141823.69;;;0.81;100.00
8280;BME280;8335;42.646;23.380;2023-01-25T07:50:13;141823.69;;;0.81;100.00
8280;BME280;8335;42.646;23.380;2023-01-25T07:52:41;141844.63;;;0.90;100.00
8280;BME280;8335;42.646;23.380;2023-01-25T07:55:08;141700.44;;;0.30;100.00
8280;BME280;8335;42.646;23.380;2023-01-25T07:57:35;141833.50;;;0.85;100.00
8280;BME280;8335;42.646;23.380;2023-01-25T08:00:02;141752.19;;;0.51;100.00
8280;BME280;8335;42.646;23.380;2023-01-25T08:02:31;141808.88;;;0.75;100.00
8280;BME280;8335;42.646;23.380;2023-01-25T08:04:58;141800.22;;;0.71;100.00
8280;BME280;8335;42.646;23.380;2023-01-25T08:07:27;141822.44;;;0.80;100.00
8280;BME280;8335;42.646;23.380;2023-01-25T08:09:55;141817.47;;;0.78;100.00
8280;BME280;8335;42.646;23.380;2023-01-25T08:12:22;141791.63;;;0.68;100.00
8280;BME280;8335;42.646;23.380;2023-01-25T08:14:50;141806.41;;;0.74;100.00
8280;BME280;8335;42.646;23.380;2023-01-25T08:17:16;141832.28;;;0.85;100.00
8280;BME280;8335;42.646;23.380;2023-01-25T08:19:43;141850.78;;;0.92;100.00
8280;BME280;8335;42.646;23.380;2023-01-25T08:22:10;141901.31;;;1.13;100.00
8280;BME280;8335;42.646;23.380;2023-01-25T08:24:37;141885.28;;;1.06;100.00
8280;BME280;8335;42.646;23.380;2023-01-25T08:27:06;141881.59;;;1.05;100.00
8280;BME280;8335;42.646;23.380;2023-01-25T08:29:32;141898.88;;;1.12;100.00
8280;BME280;8335;42.646;23.380;2023-01-25T08:31:59;141926.03;;;1.23;100.00
8280;BME280;8335;42.646;23.380;2023-01-25T08:34:28;141928.47;;;1.24;100.00
8280;BME280;8335;42.646;23.380;2023-01-25T08:36:56;141948.19;;;1.32;100.00
8280;BME280;8335;42.646;23.380;2023-01-25T08:39:23;141982.72;;;1.47;100.00
8280;BME280;8335;42.646;23.380;2023-01-25T08:41:50;142011.13;;;1.58;100.00
8280;BME280;8335;42.646;23.380;2023-01-25T08:44:18;142009.91;;;1.58;100.00
8280;BME280;8335;42.646;23.380;2023-01-25T08:46:47;141997.53;;;1.53;100.00
8280;BME280;8335;42.646;23.380;2023-01-25T08:49:13;141985.19;;;1.48;100.00
8280;BME280;8335;42.646;23.380;2023-01-25T08:51:40;141997.53;;;1.53;100.00
8280;BME280;8335;42.646;23.380;2023-01-25T08:54:09;141990.13;;;1.50;100.00
8280;BME280;8335;42.646;23.380;2023-01-25T08:56:38;141932.16;;;1.26;100.00
8280;BME280;8335;42.646;23.380;2023-01-25T08:59:05;141995.09;;;1.52;100.00
8280;BME280;8335;42.646;23.380;2023-01-25T09:01:33;142019.72;;;1.62;100.00
8280;BME280;8335;42.646;23.380;2023-01-25T09:04:00;142016.03;;;1.60;100.00
8280;BME280;8335;42.646;23.380;2023-01-25T09:06:27;142020.97;;;1.62;100.00
8280;BME280;8335;42.646;23.380;2023-01-25T09:08:53;142004.94;;;1.56;100.00
8280;BME280;8335;42.646;23.380;2023-01-25T09:11:21;142004.94;;;1.56;100.00
8280;BME280;8335;42.646;23.380;2023-01-25T09:13:48;142007.38;;;1.57;100.00
8280;BME280;8335;42.646;23.380;2023-01-25T09:16:17;142034.53;;;1.68;100.00
8280;BME280;8335;42.646;23.380;2023-01-25T09:18:48;142049.34;;;1.74;100.00
8280;BME280;8335;42.646;23.380;2023-01-25T09:21:16;142041.94;;;1.71;100.00
8280;BME280;8335;42.646;23.380;2023-01-25T09:23:43;141928.47;;;1.24;100.00
8280;BME280;8335;42.646;23.380;2023-01-25T09:26:11;142054.28;;;1.76;100.00
8280;BME280;8335;42.646;23.380;2023-01-25T09:28:40;142046.91;;;1.73;100.00
8280;BME280;8335;42.646;23.380;2023-01-25T09:31:09;142014.81;;;1.60;100.00
8280;BME280;8335;42.646;23.380;2023-01-25T09:33:42;142013.59;;;1.59;100.00
8280;BME280;8335;42.646;23.380;2023-01-25T09:36:10;142024.66;;;1.64;100.00
8280;BME280;8335;42.646;23.380;2023-01-25T09:38:37;142071.56;;;1.83;100.00
8280;BME280;8335;42.646;23.380;2023-01-25T09:41:25;142067.88;;;1.82;100.00
8280;BME280;8335;42.646;23.380;2023-01-25T09:44:07;142099.94;;;1.95;100.00
8280;BME280;8335;42.646;23.380;2023-01-25T09:46:40;142102.41;;;1.96;100.00
8280;BME280;8335;42.646;23.380;2023-01-25T09:49:20;142113.53;;;2.01;100.00
8280;BME280;8335;42.646;23.380;2023-01-25T09:52:10;142017.28;;;1.61;100.00
8280;BME280;8335;42.646;23.380;2023-01-25T09:54:44;142053.06;;;1.76;100.00
8280;BME280;8335;42.646;23.380;2023-01-25T09:57:14;142075.25;;;1.85;100.00
8280;BME280;8335;42.646;23.380;2023-01-25T09:59:43;142107.34;;;1.98;100.00
8280;BME280;8335;42.646;23.380;2023-01-25T10:02:18;142117.22;;;2.02;100.00
8280;BME280;8335;42.646;23.380;2023-01-25T10:04:52;142209.78;;;2.40;100.00
8280;BME280;8335;42.646;23.380;2023-01-25T10:07:25;142207.31;;;2.39;100.00
8280;BME280;8335;42.646;23.380;2023-01-25T10:09:59;142207.31;;;2.39;100.00
8280;BME280;8335;42.646;23.380;2023-01-25T10:12:35;142223.38;;;2.46;100.00
8280;BME280;8335;42.646;23.380;2023-01-25T10:15:16;142239.44;;;2.53;100.00
8280;BME280;8335;42.646;23.380;2023-01-25T10:17:43;142234.50;;;2.51;100.00
8280;BME280;8335;42.646;23.380;2023-01-25T10:20:23;142198.69;;;2.36;100.00
8280;BME280;8335;42.646;23.380;2023-01-25T10:23:08;142123.38;;;2.05;100.00
8280;BME280;8335;42.646;23.380;2023-01-25T10:25:42;142161.63;;;2.20;100.00
8280;BME280;8335;42.646;23.380;2023-01-25T10:28:26;142167.84;;;2.23;100.00
8280;BME280;8335;42.646;23.380;2023-01-25T10:30:59;142208.56;;;2.40;100.00
8280;BME280;8335;42.646;23.380;2023-01-25T10:33:28;142243.13;;;2.54;100.00
8280;BME280;8335;42.646;23.380;2023-01-25T10:36:00;142218.44;;;2.44;100.00
8280;BME280;8335;42.646;23.380;2023-01-25T10:38:33;142288.81;;;2.73;100.00
8280;BME280;8335;42.646;23.380;2023-01-25T10:41:03;142332.03;;;2.91;100.00
8280;BME280;8335;42.646;23.380;2023-01-25T10:43:32;142294.97;;;2.75;98.97
8280;BME280;8335;42.646;23.380;2023-01-25T10:46:00;142250.56;;;2.57;98.47
8280;BME280;8335;42.646;23.380;2023-01-25T10:48:29;142183.88;;;2.30;99.11
8280;BME280;8335;42.646;23.380;2023-01-25T10:50:58;142234.50;;;2.51;99.35
8280;BME280;8335;42.646;23.380;2023-01-25T10:53:32;142257.94;;;2.60;99.40
8280;BME280;8335;42.646;23.380;2023-01-25T10:56:10;142272.75;;;2.66;99.84
8280;BME280;8335;42.646;23.380;2023-01-25T10:58:42;142315.97;;;2.84;99.58
8280;BME280;8335;42.646;23.380;2023-01-25T11:01:23;142328.31;;;2.89;98.04
8280;BME280;8335;42.646;23.380;2023-01-25T11:03:50;142322.16;;;2.87;98.25
8280;BME280;8335;42.646;23.380;2023-01-25T11:06:28;142287.59;;;2.72;98.02
8280;BME280;8335;42.646;23.380;2023-01-25T11:08:57;142285.09;;;2.71;97.75
8280;BME280;8335;42.646;23.380;2023-01-25T11:11:25;142301.13;;;2.78;97.81
8280;BME280;8335;42.646;23.380;2023-01-25T11:13:56;142307.34;;;2.81;97.34
8280;BME280;8335;42.646;23.380;2023-01-25T11:16:28;142269.06;;;2.65;97.65
8280;BME280;8335;42.646;23.380;2023-01-25T11:18:56;142303.66;;;2.79;97.93
8280;BME280;8335;42.646;23.380;2023-01-25T11:21:24;142269.06;;;2.65;97.69
8280;BME280;8335;42.646;23.380;2023-01-25T11:24:16;142309.81;;;2.82;97.27
8280;BME280;8335;42.646;23.380;2023-01-25T11:26:44;142250.56;;;2.57;97.02
8280;BME280;8335;42.646;23.380;2023-01-25T11:29:14;142256.72;;;2.60;97.10
8280;BME280;8335;42.646;23.380;2023-01-25T11:31:43;142311.03;;;2.82;96.96
8280;BME280;8335;42.646;23.380;2023-01-25T11:34:13;142343.16;;;2.95;97.74
8280;BME280;8335;42.646;23.380;2023-01-25T11:36:53;142298.66;;;2.77;96.20
8280;BME280;8335;42.646;23.380;2023-01-25T11:39:39;142209.78;;;2.40;97.01
8280;BME280;8335;42.646;23.380;2023-01-25T11:42:17;142298.66;;;2.77;97.38
8280;BME280;8335;42.646;23.380;2023-01-25T11:45:18;142294.97;;;2.75;97.11
8280;BME280;8335;42.646;23.380;2023-01-25T11:48:08;142299.91;;;2.78;97.81
8280;BME280;8335;42.646;23.380;2023-01-25T11:50:42;142306.13;;;2.80;97.42
8280;BME280;8335;42.646;23.380;2023-01-25T11:53:27;142301.13;;;2.78;97.71
8280;BME280;8335;42.646;23.380;2023-01-25T11:56:05;142302.38;;;2.79;97.79
8280;BME280;8335;42.646;23.380;2023-01-25T11:58:47;142159.16;;;2.19;97.43
8280;BME280;8335;42.646;23.380;2023-01-25T12:01:24;142301.13;;;2.78;97.81
8280;BME280;8335;42.646;23.380;2023-01-25T12:04:31;142275.22;;;2.67;98.05
8280;BME280;8335;42.646;23.380;2023-01-25T12:07:03;142281.38;;;2.70;98.74
8280;BME280;8335;42.646;23.380;2023-01-25T12:09:40;142288.81;;;2.73;98.88
8280;BME280;8335;42.646;23.380;2023-01-25T12:12:23;142272.75;;;2.66;98.40
8280;BME280;8335;42.646;23.380;2023-01-25T12:15:09;142238.19;;;2.52;98.17
8280;BME280;8335;42.646;23.380;2023-01-25T12:17:52;142214.72;;;2.42;99.37
8280;BME280;8335;42.646;23.380;2023-01-25T12:20:30;142111.03;;;2.00;100.00
8280;BME280;8335;42.646;23.380;2023-01-25T12:23:10;142211.00;;;2.41;100.00
8280;BME280;8335;42.646;23.380;2023-01-25T12:25:49;142255.47;;;2.59;100.00
8280;BME280;8335;42.646;23.380;2023-01-25T12:28:24;142248.03;;;2.56;99.32
8280;BME280;8335;42.646;23.380;2023-01-25T12:30:57;142243.13;;;2.54;100.00
8280;BME280;8335;42.646;23.380;2023-01-25T12:33:30;142230.75;;;2.49;99.83
8280;BME280;8335;42.646;23.380;2023-01-25T12:36:02;142211.00;;;2.41;99.35
8280;BME280;8335;42.646;23.380;2023-01-25T12:38:35;142191.28;;;2.33;100.00
8280;BME280;8335;42.646;23.380;2023-01-25T12:41:10;142190.03;;;2.32;99.67
8280;BME280;8335;42.646;23.380;2023-01-25T12:43:44;142174.00;;;2.26;99.85
8280;BME280;8335;42.646;23.380;2023-01-25T12:46:15;142167.84;;;2.23;100.00
8280;BME280;8335;42.646;23.380;2023-01-25T12:48:49;142175.22;;;2.26;100.00
8280;BME280;8335;42.646;23.380;2023-01-25T12:51:20;142150.56;;;2.16;100.00
8280;BME280;8335;42.646;23.380;2023-01-25T12:53:48;142148.09;;;2.15;100.00
8280;BME280;8335;42.646;23.380;2023-01-25T12:56:29;142127.06;;;2.06;100.00
8280;BME280;8335;42.646;23.380;2023-01-25T12:59:05;142165.38;;;2.22;100.00
8280;BME280;8335;42.646;23.380;2023-01-25T13:01:37;142202.41;;;2.37;100.00
8280;BME280;8335;42.646;23.380;2023-01-25T13:04:20;142174.00;;;2.26;99.96
8280;BME280;8335;42.646;23.380;2023-01-25T13:06:55;142144.34;;;2.13;100.00
8280;BME280;8335;42.646;23.380;2023-01-25T13:09:28;142151.78;;;2.16;100.00
8280;BME280;8335;42.646;23.380;2023-01-25T13:12:02;142161.63;;;2.20;100.00
8280;BME280;8335;42.646;23.380;2023-01-25T13:14:35;142172.75;;;2.25;99.71
8280;BME280;8335;42.646;23.380;2023-01-25T13:17:20;142127.06;;;2.06;100.00